KGJT/GJT METAR and TAF weather

Enter ICAO airport designator
Station Type Date Time Source
KGJT METAR 2021/03/02 12:53 UTC NOAA

KGJT 021253Z AUTO 10005KT 10SM CLR M06/M12 A3026 RMK AO2 SLP259 T10611122


Station Type Date Time Source
KGJT Decoded METAR 2021/03/02 12:53 UTC NOAA

GRAND JUNCTION WALKER FIELD, CO, United States (KGJT) 39-08N 108-32W 1452M
Mar 02, 2021 - 07:53 AM EST / 2021.03.02 1253 UTC
Wind: from the E (100 degrees) at 6 MPH (5 KT):0
Visibility: 10 mile(s):0
Sky conditions: clear
Temperature: 21.0 F (-6.1 C)
Windchill: 14 F (-10 C):1
Dew Point: 10.0 F (-12.2 C)
Relative Humidity: 61%
Pressure (altimeter): 30.26 in. Hg (1024 hPa)
ob: KGJT 021253Z AUTO 10005KT 10SM CLR M06/M12 A3026 RMK AO2 SLP259 T10611122
cycle: 13

Station Type Date Time Source
KGJT TAF 2021/03/02 12:33 UTC NOAA

TAF KGJT 021130Z 0212/0312 11010KT P6SM SKC
FM021900 28005KT P6SM SKC

Example: see airport list